Time;durP1;ratioP1;P1;durP2;ratioP2;P2;SDS_P1;SDS_P2;PMS_P1;PMS_P2;Temp;Humidity;BMP_temperature;BMP_pressure;BME280_temperature;BME280_humidity;BME280_pressure;Samples;Min_cycle;Max_cycle;Signal;HPM_P1;HPM_P2
2023/08/21 00:00:39;;;;;;;12.65;3.00;;;;;;;16.52;100.00;101602.06;5027809;28;20430;-83
2023/08/21 00:03:12;;;;;;;9.38;2.80;;;;;;;16.48;100.00;101598.28;5005819;28;21276;-83
2023/08/21 00:05:46;;;;;;;7.60;2.90;;;;;;;16.47;100.00;101591.16;5001291;28;20429;-83
2023/08/21 00:08:20;;;;;;;9.52;2.85;;;;;;;16.46;100.00;101589.50;5001916;28;20426;-83
2023/08/21 00:10:53;;;;;;;6.90;2.58;;;;;;;16.44;100.00;101595.31;5000117;28;20486;-83
2023/08/21 00:13:26;;;;;;;8.65;3.28;;;;;;;16.43;100.00;101595.59;5028153;28;20438;-83
2023/08/21 00:16:00;;;;;;;10.00;2.90;;;;;;;16.43;100.00;101598.34;5001633;28;20427;-83
2023/08/21 00:18:33;;;;;;;7.75;2.60;;;;;;;16.41;100.00;101601.41;5003664;28;20416;-83
2023/08/21 00:21:06;;;;;;;9.13;2.88;;;;;;;16.36;100.00;101595.16;5029256;28;20855;-83
2023/08/21 00:23:41;;;;;;;9.05;2.90;;;;;;;16.36;100.00;101593.22;5000703;28;20428;-83
2023/08/21 00:26:14;;;;;;;10.18;2.70;;;;;;;16.32;100.00;101594.94;4999858;28;20432;-83
2023/08/21 00:28:47;;;;;;;13.40;2.95;;;;;;;16.32;100.00;101590.28;5000780;28;20992;-83
2023/08/21 00:31:20;;;;;;;15.20;2.83;;;;;;;16.32;100.00;101592.19;5001366;28;20444;-83
2023/08/21 00:33:53;;;;;;;16.65;3.10;;;;;;;16.36;100.00;101592.41;5000336;28;20422;-83
2023/08/21 00:36:22;;;;;;;10.23;2.60;;;;;;;16.30;100.00;101597.97;5007277;28;20443;-83
2023/08/21 00:38:56;;;;;;;9.75;2.83;;;;;;;16.33;100.00;101593.81;4996315;28;20446;-83
2023/08/21 00:41:30;;;;;;;9.80;3.15;;;;;;;16.36;100.00;101601.47;5000404;28;20439;-83
2023/08/21 00:44:00;;;;;;;10.00;2.90;;;;;;;16.33;100.00;101597.38;4997539;28;20441;-83
2023/08/21 00:46:33;;;;;;;10.82;3.00;;;;;;;16.29;100.00;101596.34;5001017;28;20437;-84
2023/08/21 00:49:06;;;;;;;9.73;3.00;;;;;;;16.27;100.00;101587.59;5035063;28;20457;-83
2023/08/21 00:51:41;;;;;;;7.68;2.60;;;;;;;16.25;100.00;101597.22;5000972;28;20442;-83
2023/08/21 00:54:11;;;;;;;10.23;2.60;;;;;;;16.22;100.00;101590.41;4998760;28;20417;-83
2023/08/21 00:56:44;;;;;;;9.40;2.67;;;;;;;16.17;100.00;101590.47;5006890;28;20421;-83
2023/08/21 00:59:17;;;;;;;11.40;2.90;;;;;;;16.18;100.00;101586.59;5000915;28;20453;-83
2023/08/21 01:01:46;;;;;;;7.80;2.50;;;;;;;16.06;100.00;101586.22;5001228;28;20512;-83
2023/08/21 01:04:19;;;;;;;6.95;2.90;;;;;;;16.00;100.00;101584.66;5031897;28;20422;-83
2023/08/21 01:06:48;;;;;;;10.95;2.88;;;;;;;16.02;100.00;101585.19;4997400;28;20430;-83
2023/08/21 01:09:28;;;;;;;8.20;2.60;;;;;;;16.04;100.00;101574.72;5000073;28;20422;-83
2023/08/21 01:12:10;;;;;;;9.73;3.07;;;;;;;16.04;100.00;101578.28;5000064;28;21069;-83
2023/08/21 01:14:51;;;;;;;10.13;2.92;;;;;;;16.00;100.00;101576.44;5003752;28;20517;-83
2023/08/21 01:17:21;;;;;;;9.57;3.17;;;;;;;15.99;100.00;101578.34;5003329;28;20409;-83
2023/08/21 01:19:51;;;;;;;11.43;3.50;;;;;;;15.94;100.00;101587.47;4997011;28;20983;-83
2023/08/21 01:22:27;;;;;;;12.13;3.50;;;;;;;15.90;100.00;101589.16;5015409;28;20771;-83
2023/08/21 01:24:56;;;;;;;8.90;3.30;;;;;;;15.90;100.00;101591.09;4995344;28;20441;-83
2023/08/21 01:27:24;;;;;;;10.60;3.40;;;;;;;15.88;100.00;101593.31;5002911;28;20451;-83
2023/08/21 01:29:57;;;;;;;12.98;3.22;;;;;;;15.85;100.00;101586.47;4998077;28;20428;-83
2023/08/21 01:32:38;;;;;;;9.10;3.08;;;;;;;15.85;100.00;101591.97;5011796;28;20437;-83
2023/08/21 01:35:12;;;;;;;10.70;3.47;;;;;;;15.87;100.00;101584.28;4997736;28;20426;-83
2023/08/21 01:37:43;;;;;;;12.02;3.50;;;;;;;15.91;100.00;101589.97;5029441;28;20462;-83
2023/08/21 01:40:22;;;;;;;11.13;3.60;;;;;;;15.86;100.00;101587.31;5001156;28;20767;-83
2023/08/21 01:42:56;;;;;;;12.32;3.80;;;;;;;15.87;100.00;101592.50;4999456;28;20432;-83
2023/08/21 01:45:29;;;;;;;12.65;3.85;;;;;;;15.90;100.00;101589.16;5014469;28;20426;-83
2023/08/21 01:47:57;;;;;;;11.17;3.80;;;;;;;15.88;100.00;101588.66;5000928;28;20406;-83
2023/08/21 01:50:25;;;;;;;10.18;3.47;;;;;;;15.84;100.00;101595.00;5006040;28;20433;-83
2023/08/21 01:52:55;;;;;;;12.60;3.90;;;;;;;15.86;100.00;101582.63;4998309;28;20774;-83
2023/08/21 01:55:24;;;;;;;11.82;4.68;;;;;;;15.88;100.00;101596.06;5006494;28;20414;-83
2023/08/21 01:57:58;;;;;;;12.00;3.72;;;;;;;15.87;100.00;101595.25;5021052;28;20432;-84
2023/08/21 02:00:31;;;;;;;11.15;4.38;;;;;;;15.86;100.00;101593.63;5003541;28;20422;-83
2023/08/21 02:02:59;;;;;;;13.07;4.53;;;;;;;15.90;100.00;101594.66;5000543;28;20426;-83
2023/08/21 02:05:38;;;;;;;11.18;4.60;;;;;;;15.87;100.00;101599.91;5002806;28;20426;-83
2023/08/21 02:08:14;;;;;;;12.57;4.60;;;;;;;15.86;100.00;101592.81;5002774;28;20436;-83
2023/08/21 02:10:51;;;;;;;10.13;4.53;;;;;;;15.80;100.00;101592.84;5001823;28;20428;-83
2023/08/21 02:13:24;;;;;;;13.48;4.60;;;;;;;15.81;100.00;101597.25;5002711;28;20445;-83
2023/08/21 02:15:57;;;;;;;14.57;5.03;;;;;;;15.77;100.00;101592.59;4999540;28;20430;-82
2023/08/21 02:18:25;;;;;;;14.40;5.10;;;;;;;15.77;100.00;101587.09;5008380;28;20435;-83
2023/08/21 02:20:54;;;;;;;13.02;5.00;;;;;;;15.80;100.00;101587.38;5002774;28;20453;-83
2023/08/21 02:23:27;;;;;;;15.40;5.00;;;;;;;15.79;100.00;101585.72;5003949;28;20424;-83
2023/08/21 02:26:01;;;;;;;14.48;4.90;;;;;;;15.77;100.00;101593.44;5007724;28;20434;-83
2023/08/21 02:28:35;;;;;;;14.87;5.23;;;;;;;15.77;100.00;101587.09;5001565;28;20414;-83
2023/08/21 02:31:10;;;;;;;12.27;5.03;;;;;;;15.73;100.00;101592.38;4999178;28;20430;-83
2023/08/21 02:33:43;;;;;;;14.75;4.95;;;;;;;15.73;100.00;101589.63;5000632;28;20496;-84
2023/08/21 02:36:16;;;;;;;14.00;5.05;;;;;;;15.69;100.00;101588.56;5005838;28;20428;-83
2023/08/21 02:38:50;;;;;;;14.68;5.07;;;;;;;15.64;100.00;101597.66;5001057;28;20418;-83
2023/08/21 02:41:25;;;;;;;14.20;4.97;;;;;;;15.53;100.00;101596.16;5005783;28;20519;-83
2023/08/21 02:43:58;;;;;;;13.00;5.18;;;;;;;15.52;100.00;101591.75;5000477;28;20425;-83
2023/08/21 02:46:26;;;;;;;14.85;5.18;;;;;;;15.51;100.00;101592.06;5004006;28;20418;-83
2023/08/21 02:48:59;;;;;;;12.35;5.20;;;;;;;15.50;100.00;101591.25;5000985;28;20444;-83
2023/08/21 02:51:33;;;;;;;11.65;4.85;;;;;;;15.46;100.00;101592.94;5001660;28;20428;-83
2023/08/21 02:54:06;;;;;;;15.77;5.35;;;;;;;15.47;100.00;101595.38;5001947;28;20441;-83
2023/08/21 02:56:35;;;;;;;15.50;5.75;;;;;;;15.47;100.00;101594.59;5002494;28;20415;-83
2023/08/21 02:59:08;;;;;;;15.05;5.25;;;;;;;15.42;100.00;101600.91;5004387;28;20427;-84
2023/08/21 03:01:42;;;;;;;14.13;5.20;;;;;;;15.43;100.00;101599.81;5003525;28;21078;-83
2023/08/21 03:04:15;;;;;;;15.05;5.55;;;;;;;15.38;100.00;101597.13;4999903;28;20417;-83
2023/08/21 03:06:48;;;;;;;15.93;5.50;;;;;;;15.33;100.00;101599.09;5000128;28;20416;-84
2023/08/21 03:09:21;;;;;;;13.57;5.60;;;;;;;15.31;100.00;101602.13;5004147;28;20914;-84
2023/08/21 03:11:56;;;;;;;13.27;4.78;;;;;;;15.32;100.00;101601.03;5005210;28;20444;-84
2023/08/21 03:14:25;;;;;;;16.02;5.22;;;;;;;15.33;100.00;101596.34;5000886;28;20435;-84
2023/08/21 03:16:53;;;;;;;15.52;5.40;;;;;;;15.30;100.00;101603.25;5031681;28;20432;-84
2023/08/21 03:19:22;;;;;;;13.73;4.93;;;;;;;15.29;100.00;101601.63;5036916;28;20504;-84
2023/08/21 03:21:55;;;;;;;13.48;5.57;;;;;;;15.29;100.00;101602.44;5000731;28;20417;-84
2023/08/21 03:24:24;;;;;;;14.05;5.35;;;;;;;15.25;100.00;101606.06;5036195;28;20420;-84
2023/08/21 03:26:52;;;;;;;11.60;4.70;;;;;;;15.25;100.00;101604.13;5018033;28;20428;-84
2023/08/21 03:29:26;;;;;;;14.60;5.13;;;;;;;15.19;100.00;101608.03;5039141;28;20425;-84
2023/08/21 03:32:00;;;;;;;15.10;5.15;;;;;;;15.13;100.00;101607.25;5000543;28;20433;-84
2023/08/21 03:34:33;;;;;;;15.20;5.30;;;;;;;15.12;100.00;101607.53;5004459;28;20423;-85
2023/08/21 03:37:06;;;;;;;14.02;4.97;;;;;;;15.10;100.00;101596.03;5019302;28;21191;-85
2023/08/21 03:39:40;;;;;;;14.50;5.07;;;;;;;15.10;100.00;101607.00;5007030;28;20422;-84
2023/08/21 03:42:13;;;;;;;15.68;5.38;;;;;;;15.06;100.00;101603.19;5010051;28;20961;-85
2023/08/21 03:44:49;;;;;;;15.35;5.10;;;;;;;15.01;100.00;101601.34;5001752;28;20413;-85
2023/08/21 03:47:18;;;;;;;11.88;4.78;;;;;;;15.00;100.00;101604.34;5015895;28;20476;-84
2023/08/21 03:49:55;;;;;;;11.30;4.53;;;;;;;15.00;100.00;101609.81;5003294;28;20438;-85
2023/08/21 03:52:25;;;;;;;10.27;4.25;;;;;;;14.97;100.00;101600.28;5002651;28;20417;-85
2023/08/21 03:54:53;;;;;;;11.18;4.43;;;;;;;14.94;100.00;101600.81;4999937;28;20445;-85
2023/08/21 03:57:28;;;;;;;10.40;4.57;;;;;;;14.95;100.00;101599.72;5003476;28;20413;-85
2023/08/21 04:00:04;;;;;;;10.17;4.10;;;;;;;14.86;100.00;101602.28;5001782;28;20899;-84
2023/08/21 04:02:43;;;;;;;11.30;4.13;;;;;;;14.94;100.00;101598.09;5009570;28;20401;-86
2023/08/21 04:05:11;;;;;;;10.48;3.97;;;;;;;14.89;100.00;101604.44;5033817;28;20426;-85
2023/08/21 04:07:39;;;;;;;12.27;4.30;;;;;;;14.95;100.00;101608.75;5005599;28;20424;-85
2023/08/21 04:10:13;;;;;;;10.73;4.45;;;;;;;14.97;100.00;101608.50;5001169;28;20899;-85
2023/08/21 04:12:41;;;;;;;10.85;4.40;;;;;;;14.96;100.00;101604.09;5003441;28;20413;-85
2023/08/21 04:15:11;;;;;;;14.10;4.30;;;;;;;14.95;100.00;101605.22;5001824;28;20430;-85
2023/08/21 04:17:44;;;;;;;12.00;4.90;;;;;;;14.99;100.00;101603.53;5008578;28;20436;-85
2023/08/21 04:20:19;;;;;;;12.07;4.60;;;;;;;14.97;100.00;101613.97;5005914;28;20430;-86
2023/08/21 04:22:52;;;;;;;11.43;4.30;;;;;;;14.95;100.00;101616.97;5037470;28;20431;-86
2023/08/21 04:25:25;;;;;;;16.13;4.50;;;;;;;14.95;100.00;101616.16;5005412;28;20434;-84
2023/08/21 04:27:53;;;;;;;11.38;4.55;;;;;;;14.93;100.00;101615.66;5009693;28;20447;-86
2023/08/21 04:30:29;;;;;;;10.87;4.00;;;;;;;14.92;100.00;101612.06;5010551;28;20425;-86
2023/08/21 04:32:58;;;;;;;10.63;3.72;;;;;;;14.99;100.00;101610.94;5006934;28;21062;-85
2023/08/21 04:35:26;;;;;;;11.82;4.03;;;;;;;14.99;100.00;101613.69;5009990;28;20425;-86
2023/08/21 04:38:00;;;;;;;11.10;4.03;;;;;;;15.03;100.00;101621.03;5007492;28;20887;-85
2023/08/21 04:40:28;;;;;;;11.33;3.80;;;;;;;15.05;100.00;101616.09;5036314;28;20523;-85
2023/08/21 04:43:02;;;;;;;11.85;3.95;;;;;;;15.07;100.00;101616.63;5022767;28;20422;-84
2023/08/21 04:45:38;;;;;;;10.60;3.60;;;;;;;15.14;100.00;101616.28;5002468;28;20424;-84
2023/08/21 04:48:07;;;;;;;10.43;3.67;;;;;;;15.12;100.00;101619.31;5002285;28;20420;-85
2023/08/21 04:50:40;;;;;;;12.63;3.30;;;;;;;15.13;100.00;101625.63;5034503;28;20440;-84
2023/08/21 04:53:08;;;;;;;9.13;3.17;;;;;;;15.14;100.00;101621.78;5002277;28;20873;-84
2023/08/21 04:55:42;;;;;;;8.68;3.08;;;;;;;15.18;100.00;101614.59;5009154;28;20437;-83
2023/08/21 04:58:11;;;;;;;8.55;3.10;;;;;;;15.24;100.00;101623.59;5005038;28;20443;-84
2023/08/21 05:00:46;;;;;;;10.73;3.45;;;;;;;15.24;100.00;101623.59;4998478;28;20430;-84
2023/08/21 05:03:20;;;;;;;10.15;3.75;;;;;;;15.27;100.00;101625.75;4995854;28;20429;-84
2023/08/21 05:05:57;;;;;;;10.88;3.70;;;;;;;15.33;100.00;101624.63;5026188;28;21135;-84
2023/08/21 05:08:31;;;;;;;8.10;3.38;;;;;;;16.09;100.00;101626.84;5003022;28;20450;-84
2023/08/21 05:11:00;;;;;;;9.45;3.20;;;;;;;17.16;100.00;101618.91;5000887;28;20433;-84
2023/08/21 05:13:35;;;;;;;9.00;3.13;;;;;;;18.05;100.00;101626.38;5004107;28;20443;-83
2023/08/21 05:16:12;;;;;;;9.65;2.67;;;;;;;18.75;100.00;101632.53;4999839;28;20424;-84
2023/08/21 05:18:47;;;;;;;7.55;2.40;;;;;;;19.06;100.00;101631.81;4997073;28;20448;-84
2023/08/21 05:21:17;;;;;;;6.65;2.10;;;;;;;19.26;100.00;101630.50;5026750;28;20443;-84
2023/08/21 05:23:50;;;;;;;6.35;2.45;;;;;;;18.92;100.00;101638.22;4998894;28;20429;-84
2023/08/21 05:26:23;;;;;;;7.50;2.30;;;;;;;18.47;100.00;101644.47;4996522;28;20431;-84
2023/08/21 05:28:51;;;;;;;6.15;2.20;;;;;;;17.80;100.00;101643.09;4997288;28;20410;-85
2023/08/21 05:31:26;;;;;;;7.47;2.42;;;;;;;17.57;100.00;101636.66;5001691;28;20434;-84
2023/08/21 05:33:55;;;;;;;9.15;2.35;;;;;;;17.14;100.00;101640.44;4995682;28;20430;-84
2023/08/21 05:36:24;;;;;;;7.10;2.58;;;;;;;16.91;100.00;101644.91;4998370;28;20441;-84
2023/08/21 05:38:59;;;;;;;7.60;2.40;;;;;;;16.75;100.00;101640.75;5000081;28;20445;-84
2023/08/21 05:41:29;;;;;;;9.57;2.65;;;;;;;16.62;100.00;101643.13;5027973;28;20908;-84
2023/08/21 05:44:02;;;;;;;8.43;2.45;;;;;;;16.70;100.00;101643.59;5003188;28;20418;-84
2023/08/21 05:46:37;;;;;;;7.93;2.70;;;;;;;16.71;100.00;101637.78;5002334;28;20464;-84
2023/08/21 05:49:06;;;;;;;9.70;2.60;;;;;;;16.73;100.00;101646.53;5004826;28;20464;-84
2023/08/21 05:51:39;;;;;;;9.18;2.72;;;;;;;16.83;100.00;101642.81;5013456;28;20429;-84
2023/08/21 05:54:12;;;;;;;9.57;2.50;;;;;;;16.80;100.00;101640.66;5001516;28;20434;-84
2023/08/21 05:56:42;;;;;;;6.50;2.50;;;;;;;16.83;100.00;101646.41;5005825;28;20907;-83
2023/08/21 05:59:11;;;;;;;12.48;2.90;;;;;;;16.89;100.00;101644.41;5005268;28;20430;-84
2023/08/21 06:01:41;;;;;;;11.63;3.00;;;;;;;16.97;100.00;101646.50;5018170;28;20461;-85
2023/08/21 06:04:09;;;;;;;8.13;2.40;;;;;;;17.02;100.00;101642.03;4999001;28;20441;-84
2023/08/21 06:06:42;;;;;;;9.48;2.47;;;;;;;17.06;100.00;101643.06;4999284;28;20436;-84
2023/08/21 06:09:16;;;;;;;8.90;2.35;;;;;;;17.12;100.00;101645.44;4999014;28;20802;-83
2023/08/21 06:11:50;;;;;;;8.15;2.70;;;;;;;17.29;100.00;101652.28;5029450;28;20433;-83
2023/08/21 06:14:28;;;;;;;9.40;2.70;;;;;;;17.21;100.00;101648.28;4997644;28;20442;-83
2023/08/21 06:17:05;;;;;;;10.27;2.58;;;;;;;17.28;100.00;101656.16;5003863;28;20447;-82
2023/08/21 06:19:33;;;;;;;10.35;2.60;;;;;;;17.36;100.00;101658.22;5001882;28;20429;-80
2023/08/21 06:22:06;;;;;;;10.07;2.55;;;;;;;17.53;100.00;101660.38;5001573;28;20904;-79
2023/08/21 06:24:34;;;;;;;9.88;2.65;;;;;;;17.48;100.00;101664.06;5009932;28;20413;-82
2023/08/21 06:27:11;;;;;;;11.50;3.00;;;;;;;17.61;100.00;101664.38;5019098;28;20421;-81
2023/08/21 06:29:40;;;;;;;11.67;2.70;;;;;;;17.58;100.00;101663.06;5007612;28;20510;-81
2023/08/21 06:32:09;;;;;;;10.07;2.50;;;;;;;17.53;100.00;101668.66;5027003;28;20506;-81
2023/08/21 06:34:38;;;;;;;14.02;3.20;;;;;;;17.59;100.00;101669.38;5007719;28;20428;-80
2023/08/21 06:37:12;;;;;;;11.80;2.88;;;;;;;17.77;100.00;101673.16;5012770;28;20422;-80
2023/08/21 06:39:47;;;;;;;12.43;2.88;;;;;;;17.84;100.00;101679.91;5011660;28;20423;-79
2023/08/21 06:42:15;;;;;;;7.05;2.05;;;;;;;17.86;100.00;101676.84;5018894;28;20431;-81
2023/08/21 06:44:48;;;;;;;11.98;2.70;;;;;;;17.96;100.00;101675.84;5013769;28;20435;-80
2023/08/21 06:47:18;;;;;;;10.55;3.10;;;;;;;17.95;100.00;101676.97;5007544;28;20423;-80
2023/08/21 06:49:51;;;;;;;10.40;2.70;;;;;;;17.93;100.00;101677.28;5007756;28;20421;-85
2023/08/21 06:52:24;;;;;;;11.02;2.83;;;;;;;18.05;100.00;101673.19;5009836;28;20883;-82
2023/08/21 06:54:52;;;;;;;11.13;3.00;;;;;;;18.10;100.00;101675.84;5039252;28;20427;-82
2023/08/21 06:57:21;;;;;;;9.20;2.70;;;;;;;18.25;100.00;101670.03;5031457;28;20434;-81
2023/08/21 06:59:54;;;;;;;8.40;2.53;;;;;;;18.45;100.00;101681.72;5006509;28;20439;-80
2023/08/21 07:02:23;;;;;;;7.53;2.22;;;;;;;18.43;100.00;101687.56;5015632;28;20440;-81
2023/08/21 07:04:56;;;;;;;8.10;2.27;;;;;;;18.49;100.00;101682.75;5006093;28;20409;-84
2023/08/21 07:07:29;;;;;;;10.88;2.42;;;;;;;18.39;100.00;101686.53;5002947;28;20891;-82
2023/08/21 07:09:58;;;;;;;9.73;2.35;;;;;;;18.26;100.00;101685.44;5011189;28;20434;-81
2023/08/21 07:12:31;;;;;;;7.90;2.17;;;;;;;18.40;100.00;101688.19;5030374;28;20438;-83
2023/08/21 07:15:05;;;;;;;11.88;2.40;;;;;;;18.42;100.00;101688.69;5005564;28;20448;-82
2023/08/21 07:17:40;;;;;;;9.68;2.42;;;;;;;18.47;100.00;101673.97;5003636;28;20799;-80
2023/08/21 07:20:13;;;;;;;9.65;2.20;;;;;;;18.60;100.00;101680.56;5014907;28;20430;-80
2023/08/21 07:22:46;;;;;;;8.70;2.03;;;;;;;18.64;100.00;101687.94;5003671;28;20426;-81
2023/08/21 07:25:19;;;;;;;10.90;1.95;;;;;;;18.61;100.00;101677.50;4999058;28;20441;-79
2023/08/21 07:27:47;;;;;;;7.65;2.40;;;;;;;18.66;100.00;101679.34;4999614;28;20468;-80
2023/08/21 07:30:22;;;;;;;8.50;2.10;;;;;;;18.64;100.00;101676.91;4999995;28;20429;-82
2023/08/21 07:32:53;;;;;;;7.10;2.05;;;;;;;18.96;100.00;101675.09;4995594;28;20443;-83
2023/08/21 07:35:26;;;;;;;8.25;1.80;;;;;;;19.00;100.00;101683.53;5001483;28;20421;-83
2023/08/21 07:38:00;;;;;;;9.73;1.80;;;;;;;19.18;100.00;101679.81;4991766;28;20429;-81
2023/08/21 07:40:28;;;;;;;10.02;1.98;;;;;;;19.04;100.00;101673.50;4992511;28;20433;-81
2023/08/21 07:43:01;;;;;;;8.40;2.43;;;;;;;18.96;100.00;101688.06;4985303;28;20421;-83
2023/08/21 07:45:30;;;;;;;10.13;2.40;;;;;;;19.02;100.00;101682.09;4985589;28;20436;-84
2023/08/21 07:48:00;;;;;;;13.00;3.00;;;;;;;19.22;100.00;101681.94;4991766;28;20483;-80
2023/08/21 07:50:28;;;;;;;9.13;2.17;;;;;;;19.30;100.00;101681.97;4987668;28;20440;-83
2023/08/21 07:52:57;;;;;;;8.43;1.95;;;;;;;19.09;100.00;101683.63;4988317;28;20825;-84
2023/08/21 07:55:25;;;;;;;8.45;2.08;;;;;;;19.03;100.00;101680.19;4988138;28;20429;-84
2023/08/21 07:57:58;;;;;;;11.87;2.30;;;;;;;19.19;100.00;101686.13;4987756;28;20428;-81
2023/08/21 08:00:31;;;;;;;7.35;1.90;;;;;;;19.41;100.00;101681.72;4991472;28;20452;-82
2023/08/21 08:03:06;;;;;;;9.23;2.08;;;;;;;19.32;100.00;101679.72;4990844;28;21003;-82
2023/08/21 08:05:35;;;;;;;7.77;1.80;;;;;;;19.35;100.00;101678.28;4990531;28;20455;-80
2023/08/21 08:08:08;;;;;;;6.38;1.50;;;;;;;19.51;100.00;101684.22;4990749;28;20432;-83
2023/08/21 08:10:38;;;;;;;6.57;1.45;;;;;;;19.74;100.00;101684.19;5009160;28;20437;-84
2023/08/21 08:13:20;;;;;;;8.07;1.60;;;;;;;19.44;100.00;101678.31;4983649;28;20433;-83
2023/08/21 08:15:53;;;;;;;12.43;1.90;;;;;;;19.49;100.00;101686.47;4985490;28;20447;-81
2023/08/21 08:18:25;;;;;;;8.40;1.55;;;;;;;19.30;100.00;101681.16;4986655;28;21124;-83
2023/08/21 08:20:53;;;;;;;6.93;1.60;;;;;;;19.43;100.00;101684.97;4983414;28;20475;-84
2023/08/21 08:23:23;;;;;;;8.90;1.70;;;;;;;19.41;100.00;101682.53;4984595;28;20515;-81
2023/08/21 08:25:57;;;;;;;6.25;1.58;;;;;;;19.62;100.00;101682.00;4985074;28;20428;-84
2023/08/21 08:28:25;;;;;;;8.03;1.50;;;;;;;19.64;100.00;101680.56;4990436;28;20439;-83
2023/08/21 08:30:53;;;;;;;6.60;1.50;;;;;;;19.70;100.00;101683.97;4988494;28;20499;-85
2023/08/21 08:33:23;;;;;;;5.65;1.58;;;;;;;19.64;100.00;101679.75;4984733;28;20436;-85
2023/08/21 08:35:56;;;;;;;7.05;1.52;;;;;;;19.65;100.00;101693.22;4987389;28;20443;-85
2023/08/21 08:38:30;;;;;;;5.97;1.42;;;;;;;19.64;100.00;101682.50;4984868;28;20440;-82
2023/08/21 08:41:01;;;;;;;7.75;1.70;;;;;;;19.75;100.00;101683.84;4984060;28;20408;-84
2023/08/21 08:43:31;;;;;;;6.18;1.55;;;;;;;19.64;100.00;101685.28;4985340;28;20421;-85
2023/08/21 08:46:05;;;;;;;5.30;1.35;;;;;;;19.50;100.00;101685.31;4991228;28;20413;-82
2023/08/21 08:48:40;;;;;;;5.55;1.30;;;;;;;19.66;100.00;101685.75;4988482;28;20862;-82
2023/08/21 08:51:13;;;;;;;7.45;1.50;;;;;;;19.56;100.00;101684.09;4988042;28;20801;-83
2023/08/21 08:53:43;;;;;;;5.70;1.30;;;;;;;19.71;100.00;101691.16;4985887;28;20424;-82
2023/08/21 08:56:11;;;;;;;7.50;1.60;;;;;;;19.67;100.00;101682.66;4988372;28;20404;-85
2023/08/21 08:58:42;;;;;;;9.82;1.77;;;;;;;19.81;100.00;101687.31;4987438;28;20436;-85
2023/08/21 09:01:11;;;;;;;6.28;1.48;;;;;;;20.07;100.00;101687.41;4992085;28;20420;-83
2023/08/21 09:03:45;;;;;;;5.93;1.33;;;;;;;19.88;100.00;101687.66;4987035;28;20427;-82
2023/08/21 09:06:14;;;;;;;5.68;1.40;;;;;;;19.80;100.00;101689.25;4995260;28;20429;-80
2023/08/21 09:08:54;;;;;;;6.97;1.42;;;;;;;19.77;100.00;101689.06;4981670;28;20416;-83
2023/08/21 09:11:28;;;;;;;6.43;1.20;;;;;;;19.90;100.00;101688.19;4994374;28;20421;-85
2023/08/21 09:14:01;;;;;;;5.47;1.40;;;;;;;20.19;100.00;101686.78;4994434;28;20817;-82
2023/08/21 09:16:35;;;;;;;4.47;1.20;;;;;;;20.10;100.00;101689.53;4992525;28;20429;-83
2023/08/21 09:19:10;;;;;;;4.53;1.10;;;;;;;19.81;100.00;101685.34;4989330;28;20428;-82
2023/08/21 09:21:39;;;;;;;5.13;1.20;;;;;;;20.03;100.00;101683.66;4987212;28;20432;-83
2023/08/21 09:24:12;;;;;;;4.13;1.10;;;;;;;20.02;100.00;101695.84;4988709;28;20447;-83
2023/08/21 09:26:46;;;;;;;5.30;1.17;;;;;;;20.23;100.00;101690.53;4991525;28;21017;-82
2023/08/21 09:29:15;;;;;;;7.35;1.42;;;;;;;20.40;100.00;101687.03;4987974;28;20439;-85
2023/08/21 09:31:48;;;;;;;4.28;1.30;;;;;;;20.37;100.00;101688.47;4987982;28;20458;-85
2023/08/21 09:34:17;;;;;;;5.18;1.50;;;;;;;20.25;100.00;101690.25;4997188;28;20908;-84
2023/08/21 09:36:55;;;;;;;5.95;1.20;;;;;;;20.19;100.00;101684.84;4990703;28;21222;-86
2023/08/21 09:39:34;;;;;;;4.30;1.02;;;;;;;20.09;100.00;101695.38;4991265;28;21316;-84
2023/08/21 09:42:02;;;;;;;5.18;1.20;;;;;;;20.20;100.00;101693.94;4988216;28;20412;-85
2023/08/21 09:44:36;;;;;;;7.60;1.25;;;;;;;20.02;100.00;101685.63;4987445;28;21490;-82
2023/08/21 09:47:09;;;;;;;5.25;1.10;;;;;;;20.17;100.00;101689.88;4992520;28;20432;-83
2023/08/21 09:49:44;;;;;;;6.22;1.30;;;;;;;20.43;100.00;101680.84;4987116;28;21613;-82
2023/08/21 09:52:17;;;;;;;5.97;1.38;;;;;;;20.54;100.00;101679.38;4990061;28;20432;-85
2023/08/21 09:54:52;;;;;;;3.85;1.30;;;;;;;20.60;100.00;101680.03;4985454;28;20439;-82
2023/08/21 09:57:27;;;;;;;4.45;1.02;;;;;;;20.71;100.00;101666.75;4999895;28;20423;-84
2023/08/21 09:59:57;;;;;;;4.50;1.20;;;;;;;20.88;100.00;101676.97;4991427;28;20437;-80
2023/08/21 10:02:27;;;;;;;5.00;0.90;;;;;;;20.72;100.00;101674.72;4984697;28;20436;-84
2023/08/21 10:05:03;;;;;;;5.28;1.10;;;;;;;20.80;100.00;101675.03;4980455;28;21543;-84
2023/08/21 10:07:37;;;;;;;4.43;1.30;;;;;;;20.85;100.00;101675.69;4985819;28;20940;-85
2023/08/21 10:10:12;;;;;;;4.27;0.97;;;;;;;21.13;100.00;101672.59;4976256;28;21467;-82
2023/08/21 10:12:40;;;;;;;5.95;1.25;;;;;;;21.22;100.00;101672.56;4989198;28;20440;-82
2023/08/21 10:15:14;;;;;;;4.55;1.17;;;;;;;21.05;100.00;101662.34;4991278;28;20561;-83
2023/08/21 10:17:47;;;;;;;5.55;1.10;;;;;;;20.91;100.00;101668.06;4992613;28;20436;-84
2023/08/21 10:20:24;;;;;;;2.80;0.93;;;;;;;20.93;100.00;101665.75;4991831;28;20421;-83
2023/08/21 10:22:54;;;;;;;7.97;1.52;;;;;;;21.09;100.00;101668.00;4992989;28;20444;-84
2023/08/21 10:25:25;;;;;;;3.47;1.10;;;;;;;21.03;100.00;101662.66;5017246;28;20445;-83
2023/08/21 10:28:02;;;;;;;5.90;1.13;;;;;;;21.00;100.00;101671.59;4992226;28;20452;-83
2023/08/21 10:30:31;;;;;;;7.97;1.35;;;;;;;21.23;100.00;101658.38;4991379;28;20435;-83
2023/08/21 10:33:00;;;;;;;5.65;1.02;;;;;;;21.21;100.00;101673.69;4986087;28;20440;-84
2023/08/21 10:35:36;;;;;;;3.63;1.00;;;;;;;21.18;100.00;101664.09;4984427;28;21144;-80
2023/08/21 10:38:12;;;;;;;4.57;1.08;;;;;;;21.49;100.00;101665.00;4992790;28;20424;-83
2023/08/21 10:41:07;;;;;;;2.97;1.08;;;;;;;21.54;100.00;101670.38;4990580;28;20424;-80
2023/08/21 10:43:39;;;;;;;4.07;1.08;;;;;;;21.43;100.00;101664.34;4993090;28;20445;-83
2023/08/21 10:46:08;;;;;;;5.53;1.10;;;;;;;21.68;100.00;101668.25;4991141;28;20440;-83
2023/08/21 10:48:37;;;;;;;3.67;1.00;;;;;;;21.46;100.00;101669.25;4983800;28;20436;-82
2023/08/21 10:51:13;;;;;;;5.00;1.05;;;;;;;21.47;100.00;101676.41;4985718;28;20490;-81
2023/08/21 10:53:46;;;;;;;4.70;0.90;;;;;;;21.51;100.00;101671.81;4992256;28;20444;-83
2023/08/21 10:56:19;;;;;;;4.00;1.05;;;;;;;21.61;100.00;101675.44;4979315;28;20444;-82
2023/08/21 10:58:54;;;;;;;3.20;1.00;;;;;;;21.28;100.00;101678.72;4984891;28;20432;-82
2023/08/21 11:01:23;;;;;;;4.53;1.00;;;;;;;21.32;100.00;101679.69;4982457;28;20435;-82
2023/08/21 11:03:52;;;;;;;4.38;1.00;;;;;;;21.51;100.00;101680.13;4986812;28;20451;-83
2023/08/21 11:06:26;;;;;;;5.90;0.90;;;;;;;21.60;100.00;101674.63;4980613;28;20435;-82
2023/08/21 11:08:59;;;;;;;5.33;0.90;;;;;;;21.54;100.00;101687.00;4987987;28;20937;-81
2023/08/21 11:11:36;;;;;;;3.50;0.90;;;;;;;21.58;100.00;101671.34;4973682;28;20431;-83
2023/08/21 11:14:04;;;;;;;2.67;0.90;;;;;;;21.40;100.00;101674.16;4980096;28;20448;-83
2023/08/21 11:16:37;;;;;;;4.50;1.20;;;;;;;21.03;100.00;101668.19;4983962;28;20451;-81
2023/08/21 11:19:11;;;;;;;2.63;0.80;;;;;;;21.04;100.00;101671.78;4995784;28;20486;-82
2023/08/21 11:21:51;;;;;;;5.15;1.05;;;;;;;21.39;100.00;101671.69;4981649;28;20448;-81
2023/08/21 11:24:31;;;;;;;4.50;1.10;;;;;;;21.38;100.00;101665.38;4981745;28;20424;-81
2023/08/21 11:27:05;;;;;;;4.18;1.00;;;;;;;21.51;100.00;101663.53;4983041;28;20444;-81
2023/08/21 11:29:38;;;;;;;3.63;1.10;;;;;;;21.71;100.00;101659.25;4983148;28;20424;-81
2023/08/21 11:32:13;;;;;;;3.85;1.00;;;;;;;22.04;100.00;101660.56;4982631;28;20440;-82
2023/08/21 11:34:49;;;;;;;5.80;1.27;;;;;;;22.04;100.00;101655.84;4984398;28;20459;-81
2023/08/21 11:37:25;;;;;;;4.75;1.02;;;;;;;21.85;100.00;101672.09;4981847;28;20452;-82